Time;durP1;ratioP1;P1;durP2;ratioP2;P2;SDS_P1;SDS_P2;PMS_P1;PMS_P2;Temp;Humidity;BMP_temperature;BMP_pressure;BME280_temperature;BME280_humidity;BME280_pressure;Samples;Min_cycle;Max_cycle;Signal;HPM_P1;HPM_P2
2023/04/06 00:00:10;;;;;;;3.43;2.93;;;;;;;3.05;61.59;101232.78;5036017;28;20226;-84
2023/04/06 00:02:36;;;;;;;3.53;3.30;;;;;;;3.00;62.50;101230.94;5035742;28;20344;-83
2023/04/06 00:05:04;;;;;;;3.73;3.37;;;;;;;3.00;62.04;101223.19;5035788;28;20206;-82
2023/04/06 00:07:33;;;;;;;2.97;2.77;;;;;;;3.00;62.12;101215.47;5036292;28;20254;-83
2023/04/06 00:09:59;;;;;;;3.33;2.97;;;;;;;3.09;61.27;101206.25;5036656;28;20687;-82
2023/04/06 00:12:25;;;;;;;3.43;3.13;;;;;;;3.02;61.35;101226.69;5036143;28;20635;-84
2023/04/06 00:14:52;;;;;;;3.50;3.20;;;;;;;2.98;56.67;101210.25;5036103;28;20272;-83
2023/04/06 00:17:18;;;;;;;3.53;3.10;;;;;;;3.08;59.17;101281.00;5036332;28;20644;-83
2023/04/06 00:19:45;;;;;;;3.47;3.10;;;;;;;2.98;60.01;101291.06;5035870;28;20230;-83
2023/04/06 00:22:12;;;;;;;4.27;3.37;;;;;;;2.98;60.12;101285.91;5035966;28;20280;-83
2023/04/06 00:24:39;;;;;;;3.77;3.43;;;;;;;2.91;60.09;101276.25;5035886;28;20748;-83
2023/04/06 00:27:05;;;;;;;4.20;3.60;;;;;;;2.90;60.53;101292.59;5035417;28;20206;-83
2023/04/06 00:29:31;;;;;;;4.77;3.33;;;;;;;2.88;59.87;101295.97;5035564;28;20210;-83
2023/04/06 00:31:58;;;;;;;4.23;3.70;;;;;;;2.93;61.55;101297.84;5035201;28;20214;-83
2023/04/06 00:34:24;;;;;;;3.63;3.33;;;;;;;2.96;60.74;101272.09;5035239;28;20248;-84
2023/04/06 00:36:50;;;;;;;3.57;3.33;;;;;;;3.03;60.62;101262.81;5035705;28;20677;-84
2023/04/06 00:39:18;;;;;;;3.90;3.27;;;;;;;3.00;59.75;101251.56;5035512;28;20254;-83
2023/04/06 00:41:49;;;;;;;4.20;3.37;;;;;;;2.94;59.80;101271.19;5036091;28;20217;-84
2023/04/06 00:44:16;;;;;;;4.10;3.80;;;;;;;3.00;59.71;101277.38;5036344;28;20199;-83
2023/04/06 00:46:42;;;;;;;3.97;3.67;;;;;;;3.01;61.77;101285.09;5035997;28;20678;-83
2023/04/06 00:49:08;;;;;;;3.67;3.37;;;;;;;3.05;61.56;101266.31;5037779;28;20832;-83
2023/04/06 00:51:34;;;;;;;4.17;3.77;;;;;;;2.95;61.39;101257.50;5043207;28;20202;-83
2023/04/06 00:54:01;;;;;;;3.83;3.53;;;;;;;2.89;61.23;101265.03;5042547;28;20596;-83
2023/04/06 00:56:28;;;;;;;4.90;4.17;;;;;;;2.94;61.52;101249.72;5041610;28;20210;-83
2023/04/06 00:58:55;;;;;;;4.30;3.93;;;;;;;2.91;61.19;101241.88;5038973;28;20724;-84
2023/04/06 01:01:21;;;;;;;4.03;3.63;;;;;;;2.88;58.58;101240.09;5037402;28;20234;-83
2023/04/06 01:03:50;;;;;;;3.83;3.43;;;;;;;2.88;60.39;101265.03;5038040;28;20198;-84
2023/04/06 01:06:16;;;;;;;3.70;3.40;;;;;;;2.89;61.39;101271.91;5038074;28;20576;-83
2023/04/06 01:08:42;;;;;;;4.40;3.83;;;;;;;2.80;61.59;101275.13;5036697;28;20221;-84
2023/04/06 01:11:09;;;;;;;3.87;3.23;;;;;;;2.71;60.24;101251.69;5040299;28;20206;-82
2023/04/06 01:13:38;;;;;;;3.57;3.27;;;;;;;2.67;60.46;101255.88;5041301;28;20213;-80
2023/04/06 01:16:05;;;;;;;4.17;3.87;;;;;;;2.68;62.25;101265.38;5041852;28;20248;-83
2023/04/06 01:18:31;;;;;;;4.00;3.50;;;;;;;2.71;61.69;101249.97;5045003;28;20252;-83
2023/04/06 01:20:58;;;;;;;3.73;3.40;;;;;;;2.75;61.83;101225.16;5044057;28;20265;-83
2023/04/06 01:23:25;;;;;;;3.87;3.33;;;;;;;2.75;61.90;101220.00;5042356;28;20209;-82
2023/04/06 01:25:52;;;;;;;4.23;3.93;;;;;;;2.73;62.43;101216.50;5042922;28;20217;-83
2023/04/06 01:28:18;;;;;;;3.77;3.47;;;;;;;2.68;63.70;101210.38;5044445;28;20235;-83
2023/04/06 01:30:44;;;;;;;3.60;3.37;;;;;;;2.65;63.42;101194.81;5044575;28;20200;-82
2023/04/06 01:33:11;;;;;;;4.23;3.90;;;;;;;2.55;63.73;101183.41;5045283;28;20211;-83
2023/04/06 01:35:37;;;;;;;4.00;3.60;;;;;;;2.45;63.91;101171.13;5043617;28;20248;-82
2023/04/06 01:38:03;;;;;;;3.90;3.60;;;;;;;2.46;64.39;101155.69;5044461;28;20230;-82
2023/04/06 01:40:31;;;;;;;3.63;3.43;;;;;;;2.46;64.47;101139.34;5044853;28;20226;-84
2023/04/06 01:42:57;;;;;;;3.70;3.40;;;;;;;2.38;65.07;101128.88;5044856;28;20218;-82
2023/04/06 01:45:23;;;;;;;3.90;3.60;;;;;;;2.34;65.09;101117.63;5044970;28;20225;-83
2023/04/06 01:47:50;;;;;;;5.60;3.80;;;;;;;2.22;65.57;101112.16;5043385;28;20383;-83
2023/04/06 01:50:16;;;;;;;4.37;3.53;;;;;;;2.22;65.57;101099.28;5043471;28;20202;-85
2023/04/06 01:52:42;;;;;;;4.00;3.67;;;;;;;2.17;65.09;101086.25;5042079;28;20206;-83
2023/04/06 01:55:09;;;;;;;3.50;3.20;;;;;;;2.13;66.25;101081.88;5043200;28;20206;-83
2023/04/06 01:57:36;;;;;;;3.57;3.27;;;;;;;2.15;66.22;101072.47;5044120;28;20222;-83
2023/04/06 02:00:03;;;;;;;4.57;4.17;;;;;;;2.10;67.21;101061.19;5045531;28;20235;-82
2023/04/06 02:02:30;;;;;;;4.70;3.47;;;;;;;2.16;67.59;101043.31;5044436;28;20210;-83
2023/04/06 02:04:56;;;;;;;4.10;3.70;;;;;;;2.19;66.91;101021.91;5041631;28;20210;-83
2023/04/06 02:07:23;;;;;;;4.13;3.83;;;;;;;2.21;65.32;101012.53;5040756;28;20249;-84
2023/04/06 02:09:49;;;;;;;5.07;3.77;;;;;;;2.22;65.74;101023.69;5041144;28;20206;-83
2023/04/06 02:12:15;;;;;;;4.17;3.77;;;;;;;2.28;65.55;101028.97;5041541;28;20210;-83
2023/04/06 02:14:43;;;;;;;4.03;3.60;;;;;;;2.27;65.45;101037.56;5040920;28;20210;-83
2023/04/06 02:17:09;;;;;;;4.57;3.70;;;;;;;2.25;66.59;101034.09;5039819;28;20735;-84
2023/04/06 02:19:36;;;;;;;4.37;3.77;;;;;;;2.17;66.43;101028.72;5045218;28;20209;-82
2023/04/06 02:22:02;;;;;;;4.07;3.73;;;;;;;2.23;64.89;101030.59;5046183;28;20222;-84
2023/04/06 02:24:28;;;;;;;3.97;3.70;;;;;;;2.19;65.38;101045.97;5045899;28;20208;-83
2023/04/06 02:26:54;;;;;;;4.33;4.03;;;;;;;2.17;64.65;101052.78;5043787;28;20263;-82
2023/04/06 02:29:21;;;;;;;3.93;3.63;;;;;;;2.16;65.03;101070.75;5045419;28;20214;-83
2023/04/06 02:31:48;;;;;;;3.70;3.40;;;;;;;2.19;65.42;101071.72;5045618;28;20696;-82
2023/04/06 02:34:17;;;;;;;3.60;3.30;;;;;;;2.15;64.95;101077.63;5044154;28;20692;-82
2023/04/06 02:36:43;;;;;;;3.80;3.27;;;;;;;2.06;66.33;101082.56;5044503;28;20210;-83
2023/04/06 02:39:10;;;;;;;4.10;3.80;;;;;;;2.10;65.91;101070.59;5042872;28;20230;-82
2023/04/06 02:41:36;;;;;;;4.47;4.07;;;;;;;2.04;65.92;101073.03;5041006;28;20231;-82
2023/04/06 02:44:02;;;;;;;4.23;3.93;;;;;;;2.00;66.61;101066.91;5038763;28;20210;-83
2023/04/06 02:46:28;;;;;;;6.67;4.13;;;;;;;1.96;66.67;101047.06;5046808;28;20210;-83
2023/04/06 02:48:56;;;;;;;4.70;4.40;;;;;;;1.92;67.27;101028.13;5046563;28;20317;-83
2023/04/06 02:51:22;;;;;;;4.77;4.47;;;;;;;1.95;66.01;101028.19;5047460;28;20209;-82
2023/04/06 02:53:49;;;;;;;4.40;4.07;;;;;;;1.96;66.21;101026.47;5046558;28;20210;-81
2023/04/06 02:56:15;;;;;;;4.63;4.30;;;;;;;1.98;66.60;101025.72;5046400;28;20216;-81
2023/04/06 02:58:41;;;;;;;4.80;4.40;;;;;;;2.04;66.54;101022.38;5046729;28;20234;-82
2023/04/06 03:01:08;;;;;;;5.07;4.67;;;;;;;2.05;65.70;101029.31;5046206;28;20229;-82
2023/04/06 03:03:34;;;;;;;4.77;4.47;;;;;;;2.10;65.62;101029.41;5046478;28;20213;-82
2023/04/06 03:06:02;;;;;;;5.00;4.60;;;;;;;2.11;65.15;101033.75;5044950;28;20229;-83
2023/04/06 03:08:29;;;;;;;5.07;4.67;;;;;;;2.14;65.23;101032.13;5045244;28;20834;-81
2023/04/06 03:10:55;;;;;;;4.93;4.53;;;;;;;2.13;64.64;101047.53;5043231;28;20202;-81
2023/04/06 03:13:22;;;;;;;5.70;5.23;;;;;;;2.05;64.58;101061.91;5045456;28;20222;-84
2023/04/06 03:15:48;;;;;;;5.00;4.57;;;;;;;2.07;65.12;101073.13;5044409;28;20219;-84
2023/04/06 03:18:14;;;;;;;5.70;5.10;;;;;;;2.11;64.45;101072.38;5043367;28;20256;-84
2023/04/06 03:20:41;;;;;;;6.00;5.60;;;;;;;2.05;63.31;101083.38;5042984;28;20229;-84
2023/04/06 03:23:09;;;;;;;5.80;5.30;;;;;;;2.02;64.02;101100.44;5040877;28;20210;-83
2023/04/06 03:25:35;;;;;;;6.37;5.77;;;;;;;1.97;63.27;101096.03;5044822;28;20229;-83
2023/04/06 03:28:01;;;;;;;6.13;5.57;;;;;;;2.00;65.52;101115.84;5045513;28;20597;-83
2023/04/06 03:30:27;;;;;;;6.30;5.80;;;;;;;2.06;65.01;101107.41;5044025;28;20209;-81
2023/04/06 03:32:54;;;;;;;7.87;5.17;;;;;;;2.10;65.21;101097.25;5045037;28;20233;-82
2023/04/06 03:35:20;;;;;;;6.10;5.60;;;;;;;2.07;64.72;101096.28;5044874;28;20229;-82
2023/04/06 03:37:46;;;;;;;6.23;5.63;;;;;;;2.06;63.63;101091.97;5044939;28;20231;-82
2023/04/06 03:40:14;;;;;;;6.73;6.13;;;;;;;2.09;63.62;101100.63;5046211;28;20532;-83
2023/04/06 03:42:40;;;;;;;6.30;5.80;;;;;;;2.05;64.84;101106.53;5044042;28;20206;-82
2023/04/06 03:45:08;;;;;;;5.67;5.27;;;;;;;2.02;64.71;101100.44;5043977;28;20217;-83
2023/04/06 03:47:34;;;;;;;6.07;5.57;;;;;;;2.01;64.77;101096.13;5046365;28;20226;-83
2023/04/06 03:50:01;;;;;;;7.13;6.43;;;;;;;1.98;64.34;101095.22;5045513;28;20202;-83
2023/04/06 03:52:27;;;;;;;6.43;5.83;;;;;;;2.04;65.36;101097.06;5044681;28;20264;-82
2023/04/06 03:54:53;;;;;;;5.93;5.53;;;;;;;2.01;65.69;101093.56;5039962;28;20206;-83
2023/04/06 03:57:21;;;;;;;6.30;5.80;;;;;;;2.02;65.56;101082.41;5044714;28;20239;-82
2023/04/06 03:59:47;;;;;;;5.53;5.13;;;;;;;1.96;66.43;101083.13;5046140;28;20210;-81
2023/04/06 04:02:14;;;;;;;6.20;5.60;;;;;;;1.85;65.43;101074.25;5045678;28;20226;-82
2023/04/06 04:04:40;;;;;;;5.77;5.27;;;;;;;1.84;66.31;101072.50;5044865;28;20213;-82
2023/04/06 04:07:07;;;;;;;5.93;5.43;;;;;;;1.87;67.09;101064.88;5046112;28;20225;-82
2023/04/06 04:09:33;;;;;;;5.87;5.33;;;;;;;1.85;66.29;101053.66;5045136;28;20211;-83
2023/04/06 04:11:59;;;;;;;5.83;5.43;;;;;;;1.82;66.75;101053.56;5046737;28;20206;-83
2023/04/06 04:14:27;;;;;;;6.60;5.90;;;;;;;1.75;65.94;101049.97;5044786;28;20218;-83
2023/04/06 04:16:53;;;;;;;6.17;5.67;;;;;;;1.73;66.97;101049.06;5044826;28;20217;-82
2023/04/06 04:19:19;;;;;;;5.77;5.33;;;;;;;1.74;66.48;101038.78;5045750;28;20214;-83
2023/04/06 04:21:47;;;;;;;7.07;6.57;;;;;;;1.67;67.00;101051.47;5044958;28;20260;-83
2023/04/06 04:24:14;;;;;;;6.13;5.53;;;;;;;1.74;67.61;101038.78;5044651;28;20202;-82
2023/04/06 04:26:41;;;;;;;6.60;6.10;;;;;;;1.76;67.22;101028.53;5044086;28;20218;-83
2023/04/06 04:29:07;;;;;;;6.30;5.90;;;;;;;1.71;67.35;101028.44;5058592;23;20250;-82
2023/04/06 04:31:35;;;;;;;6.07;5.07;;;;;;;1.71;66.76;101019.84;5035919;28;20208;-82
2023/04/06 04:34:01;;;;;;;6.20;5.70;;;;;;;1.70;67.40;101023.22;5054469;28;20645;-82
2023/04/06 04:36:27;;;;;;;6.37;5.77;;;;;;;1.59;66.42;101018.69;5056666;28;20235;-82
2023/04/06 04:38:54;;;;;;;5.97;5.47;;;;;;;1.61;67.05;101017.88;5056583;28;20283;-81
2023/04/06 04:41:20;;;;;;;6.87;6.17;;;;;;;1.56;67.62;101021.16;5056270;28;20225;-81
2023/04/06 04:43:46;;;;;;;6.57;6.07;;;;;;;1.55;67.86;101011.72;5056266;28;20683;-82
2023/04/06 04:46:13;;;;;;;6.63;6.07;;;;;;;1.62;67.67;101012.72;5055736;28;20209;-82
2023/04/06 04:48:40;;;;;;;6.27;5.87;;;;;;;1.53;67.33;101009.94;5056192;28;20989;-82
2023/04/06 04:51:07;;;;;;;7.50;6.30;;;;;;;1.54;68.55;100999.66;5056912;28;20257;-83
2023/04/06 04:53:33;;;;;;;6.40;5.87;;;;;;;1.57;67.70;101004.03;5056320;28;20259;-82
2023/04/06 04:55:59;;;;;;;6.97;6.37;;;;;;;1.55;67.90;101008.28;5055849;28;20206;-81
2023/04/06 04:58:26;;;;;;;7.13;6.43;;;;;;;1.53;68.73;101003.06;5055726;28;20229;-82
2023/04/06 05:00:52;;;;;;;7.20;6.60;;;;;;;1.54;68.91;101001.38;5037940;28;20202;-82
2023/04/06 05:03:21;;;;;;;6.93;6.33;;;;;;;1.56;69.65;100992.00;5036342;28;20217;-82
2023/04/06 05:05:49;;;;;;;7.93;7.33;;;;;;;1.51;70.15;100979.00;5035767;28;20256;-82
2023/04/06 05:08:16;;;;;;;7.63;6.57;;;;;;;1.54;69.83;100952.50;5036312;28;20229;-82
2023/04/06 05:10:42;;;;;;;7.27;6.67;;;;;;;1.52;70.10;100949.88;5036111;28;20704;-82
2023/04/06 05:13:08;;;;;;;7.03;6.37;;;;;;;1.50;70.42;100941.25;5035973;28;20582;-83
2023/04/06 05:15:37;;;;;;;6.77;6.27;;;;;;;1.51;71.41;100919.84;5029644;28;20195;-83
2023/04/06 05:18:04;;;;;;;7.20;6.70;;;;;;;1.50;71.22;100906.94;5026214;28;20214;-82
2023/04/06 05:20:30;;;;;;;7.27;6.67;;;;;;;1.52;71.74;100902.69;5025607;28;20205;-83
2023/04/06 05:22:58;;;;;;;23.93;21.47;;;;;;;1.69;72.82;100896.28;5036788;28;20252;-83
2023/04/06 05:25:24;;;;;;;21.87;19.83;;;;;;;1.85;75.94;100834.88;5034001;28;20731;-84
2023/04/06 05:27:51;;;;;;;8.17;7.43;;;;;;;2.02;79.04;100721.97;5034873;28;20724;-84
2023/04/06 05:30:17;;;;;;;11.57;10.57;;;;;;;2.15;79.24;100657.88;5034907;28;20205;-82
2023/04/06 05:32:44;;;;;;;7.63;6.97;;;;;;;2.24;79.19;100634.00;5035314;28;20195;-83
2023/04/06 05:35:11;;;;;;;8.97;8.30;;;;;;;2.37;79.15;100607.59;5037868;28;20203;-82
2023/04/06 05:37:38;;;;;;;7.67;7.03;;;;;;;2.34;74.86;100624.75;5038734;28;21629;-84
2023/04/06 05:40:08;;;;;;;7.20;6.70;;;;;;;2.39;74.04;100656.59;5039103;28;20210;-84
2023/04/06 05:42:37;;;;;;;6.90;6.40;;;;;;;2.52;76.15;100691.19;5039728;28;20316;-83
2023/04/06 05:45:04;;;;;;;8.03;7.33;;;;;;;2.77;77.77;100661.53;5039116;28;20297;-84
2023/04/06 05:47:31;;;;;;;7.27;6.67;;;;;;;2.80;75.15;100671.91;5039160;28;20214;-84
2023/04/06 05:49:57;;;;;;;7.53;6.90;;;;;;;2.95;74.56;100700.50;5040499;28;20253;-84
2023/04/06 05:52:23;;;;;;;7.03;6.40;;;;;;;3.10;74.67;100725.66;5039539;28;20673;-84
2023/04/06 05:54:50;;;;;;;5.87;5.47;;;;;;;3.09;70.15;100742.00;5039053;28;20241;-84
2023/04/06 05:57:18;;;;;;;6.87;6.37;;;;;;;3.15;70.12;100816.91;5038901;28;20217;-83
2023/04/06 05:59:44;;;;;;;6.93;6.43;;;;;;;3.26;70.70;100866.06;5038990;28;20221;-84
2023/04/06 06:02:10;;;;;;;6.63;6.03;;;;;;;3.23;69.10;100889.25;5034547;28;20224;-84
2023/04/06 06:04:37;;;;;;;6.33;5.47;;;;;;;3.41;70.57;100903.31;5029168;28;20678;-83
2023/04/06 06:07:03;;;;;;;6.83;6.23;;;;;;;3.51;71.60;100908.69;5030229;28;20202;-83
2023/04/06 06:09:30;;;;;;;6.10;5.70;;;;;;;3.52;68.99;100905.22;5030089;28;20245;-83
2023/04/06 06:11:56;;;;;;;6.93;6.33;;;;;;;3.64;68.50;100934.69;5037703;28;20222;-83
2023/04/06 06:14:23;;;;;;;6.83;6.23;;;;;;;3.63;67.92;100976.81;5040184;28;20214;-82
2023/04/06 06:16:50;;;;;;;7.03;5.60;;;;;;;3.70;67.90;100987.28;5051194;28;20229;-84
2023/04/06 06:19:16;;;;;;;6.20;5.80;;;;;;;3.85;67.91;101002.19;5028674;28;20274;-83
2023/04/06 06:21:42;;;;;;;6.63;6.13;;;;;;;3.94;67.25;101014.38;5023618;28;20659;-83
2023/04/06 06:24:09;;;;;;;5.60;5.10;;;;;;;4.00;66.11;101034.28;5018385;28;20210;-82
2023/04/06 06:26:36;;;;;;;6.00;5.40;;;;;;;4.09;66.23;101061.16;5018724;28;20239;-85
2023/04/06 06:29:04;;;;;;;6.10;5.60;;;;;;;4.06;64.85;101081.75;5020439;28;20709;-83
2023/04/06 06:31:32;;;;;;;6.70;6.20;;;;;;;4.09;64.43;101125.75;5029200;28;20229;-84
2023/04/06 06:33:58;;;;;;;6.43;5.93;;;;;;;4.21;65.27;101135.44;5032982;28;20248;-83
2023/04/06 06:36:27;;;;;;;5.70;5.30;;;;;;;4.14;63.85;101143.91;5033443;28;20207;-83
2023/04/06 06:38:53;;;;;;;6.57;5.97;;;;;;;4.05;62.15;101169.59;5038823;28;20279;-83
2023/04/06 06:41:19;;;;;;;7.57;6.97;;;;;;;4.05;62.28;101210.91;5038235;28;20210;-83
2023/04/06 06:43:46;;;;;;;6.57;6.07;;;;;;;4.03;61.26;101230.69;5039650;28;20206;-82
2023/04/06 06:46:12;;;;;;;6.27;5.73;;;;;;;3.86;61.48;101264.75;5039048;28;20211;-82
2023/04/06 06:48:39;;;;;;;7.40;6.80;;;;;;;3.76;64.36;101299.81;5040072;28;20256;-82
2023/04/06 06:51:06;;;;;;;6.43;5.83;;;;;;;3.82;63.72;101264.66;5039893;28;20203;-81
2023/04/06 06:53:32;;;;;;;6.87;6.33;;;;;;;3.97;62.26;101240.03;5038263;28;20252;-81
2023/04/06 06:55:58;;;;;;;9.50;5.77;;;;;;;4.04;60.32;101253.06;5038311;28;20202;-82
2023/04/06 06:58:25;;;;;;;6.70;6.20;;;;;;;3.98;61.77;101296.03;5039624;28;20222;-83
2023/04/06 07:00:51;;;;;;;6.27;5.77;;;;;;;4.11;60.98;101292.00;5032160;28;20253;-80
2023/04/06 07:03:18;;;;;;;6.63;6.03;;;;;;;4.14;59.54;101309.25;5039169;28;20226;-80
2023/04/06 07:05:49;;;;;;;6.90;6.30;;;;;;;4.28;59.15;101333.72;5039332;28;20207;-82
2023/04/06 07:08:16;;;;;;;6.83;6.33;;;;;;;4.37;57.97;101359.72;5039517;28;20228;-83
2023/04/06 07:10:42;;;;;;;6.60;6.10;;;;;;;4.43;57.83;101387.44;5040253;28;20277;-82
2023/04/06 07:13:09;;;;;;;6.20;5.70;;;;;;;4.51;57.34;101401.38;5043425;28;20202;-84
2023/04/06 07:15:35;;;;;;;6.67;6.07;;;;;;;4.60;56.53;101426.59;5043787;28;20207;-82
2023/04/06 07:18:01;;;;;;;6.73;6.10;;;;;;;4.62;55.81;101453.34;5044700;28;20231;-82
2023/04/06 07:20:28;;;;;;;6.57;6.07;;;;;;;4.63;54.74;101462.84;5044965;28;20236;-81
2023/04/06 07:22:56;;;;;;;6.00;5.60;;;;;;;4.80;54.55;101506.28;5038994;28;20225;-81
2023/04/06 07:25:22;;;;;;;6.37;5.70;;;;;;;4.98;54.65;101524.81;5036770;28;20387;-80
2023/04/06 07:27:49;;;;;;;6.30;5.80;;;;;;;4.99;54.42;101544.66;5036788;28;20238;-80
2023/04/06 07:30:15;;;;;;;6.27;5.77;;;;;;;5.08;53.19;101551.75;5030277;28;20215;-80
2023/04/06 07:32:45;;;;;;;6.33;5.83;;;;;;;5.23;52.35;101583.13;5027606;28;20585;-81
2023/04/06 07:35:11;;;;;;;5.93;5.53;;;;;;;5.38;53.31;101640.41;5016473;28;20199;-80
2023/04/06 07:37:37;;;;;;;5.40;4.90;;;;;;;5.42;53.47;101632.72;5015810;28;20254;-80
2023/04/06 07:40:07;;;;;;;5.87;5.43;;;;;;;5.55;53.00;101645.13;5015527;28;20218;-81
2023/04/06 07:42:33;;;;;;;6.90;6.40;;;;;;;5.80;57.94;101671.50;5015371;28;20230;-82
2023/04/06 07:45:00;;;;;;;5.63;5.23;;;;;;;5.80;52.35;101623.16;5016162;28;20215;-82
2023/04/06 07:47:26;;;;;;;6.73;6.23;;;;;;;5.92;53.57;101656.22;5015614;28;20234;-82
2023/04/06 07:49:55;;;;;;;6.07;5.57;;;;;;;6.07;54.79;101656.53;5015727;28;20203;-84
2023/04/06 07:52:21;;;;;;;6.33;5.93;;;;;;;6.16;54.41;101646.38;5015784;28;20201;-80
2023/04/06 07:54:49;;;;;;;5.97;5.47;;;;;;;6.27;54.10;101614.56;5015440;28;20208;-80
2023/04/06 07:57:19;;;;;;;5.70;5.27;;;;;;;6.33;51.47;101628.50;5014660;28;20224;-80
2023/04/06 07:59:45;;;;;;;6.30;5.80;;;;;;;6.41;51.49;101638.16;5022431;28;20213;-82
2023/04/06 08:02:11;;;;;;;5.67;5.27;;;;;;;6.51;52.51;101645.25;5032943;28;20220;-79
2023/04/06 08:04:38;;;;;;;6.13;5.60;;;;;;;6.60;51.62;101652.28;5034843;28;20685;-79
2023/04/06 08:07:04;;;;;;;5.87;5.23;;;;;;;6.71;52.22;101671.50;5035140;28;20247;-79
2023/04/06 08:09:31;;;;;;;5.60;5.20;;;;;;;6.78;50.72;101686.34;5034656;28;20225;-79
2023/04/06 08:11:57;;;;;;;5.83;5.37;;;;;;;6.88;51.00;101689.97;5035240;28;20200;-79
2023/04/06 08:14:25;;;;;;;6.87;6.27;;;;;;;6.95;51.35;101705.66;5035573;28;20326;-80
2023/04/06 08:16:51;;;;;;;6.13;5.70;;;;;;;7.02;50.35;101705.78;5036554;28;20329;-81
2023/04/06 08:19:18;;;;;;;6.50;6.00;;;;;;;7.07;49.55;101706.69;5036111;28;20225;-81
2023/04/06 08:21:45;;;;;;;5.80;5.30;;;;;;;7.10;49.58;101746.56;5036225;28;20734;-81
2023/04/06 08:24:12;;;;;;;6.17;5.60;;;;;;;7.12;50.02;101767.38;5035926;28;20261;-80
2023/04/06 08:26:38;;;;;;;5.87;5.40;;;;;;;7.13;48.54;101762.19;5035776;28;20212;-79
2023/04/06 08:29:07;;;;;;;6.33;5.77;;;;;;;7.18;48.40;101785.66;5029059;28;20228;-80
2023/04/06 08:31:35;;;;;;;6.10;5.57;;;;;;;7.16;46.97;101802.94;5028713;28;20228;-80
2023/04/06 08:34:01;;;;;;;5.80;5.17;;;;;;;7.25;48.38;101836.84;5026150;28;20681;-81
2023/04/06 08:36:31;;;;;;;6.23;5.63;;;;;;;7.36;49.34;101850.03;5027470;28;20272;-81
2023/04/06 08:38:57;;;;;;;5.70;5.30;;;;;;;7.42;49.70;101841.47;5025806;28;20221;-80
2023/04/06 08:41:24;;;;;;;6.30;5.80;;;;;;;7.52;48.67;101819.97;5024178;28;20243;-80
2023/04/06 08:43:57;;;;;;;5.37;4.97;;;;;;;7.54;48.80;101823.47;5025215;28;20216;-81
2023/04/06 08:46:28;;;;;;;6.23;5.73;;;;;;;7.54;46.85;101790.56;5026085;28;20232;-79
2023/04/06 08:48:57;;;;;;;6.30;5.80;;;;;;;7.68;48.37;101836.69;5025243;28;20214;-80
2023/04/06 08:51:25;;;;;;;6.83;6.33;;;;;;;7.68;50.60;101849.66;5023548;28;20200;-81
2023/04/06 08:53:54;;;;;;;6.47;5.97;;;;;;;7.82;52.28;101831.69;5025012;28;20201;-80
2023/04/06 08:56:21;;;;;;;5.97;5.47;;;;;;;7.88;50.38;101764.19;5024769;28;20196;-79
2023/04/06 08:58:49;;;;;;;5.83;5.23;;;;;;;7.99;48.90;101747.00;5025160;28;20247;-80
2023/04/06 09:01:17;;;;;;;6.53;5.83;;;;;;;8.06;47.78;101755.75;5028346;28;20279;-80
2023/04/06 09:03:45;;;;;;;6.60;6.10;;;;;;;8.01;48.67;101817.22;5025942;28;20287;-81
2023/04/06 09:06:14;;;;;;;6.20;5.60;;;;;;;8.12;48.71;101795.69;5024407;28;20196;-78
2023/04/06 09:08:44;;;;;;;6.40;5.83;;;;;;;8.12;48.13;101800.91;5023064;28;20217;-81
2023/04/06 09:11:11;;;;;;;6.10;5.67;;;;;;;8.24;47.49;101807.13;5029964;28;20665;-79
2023/04/06 09:13:48;;;;;;;6.00;5.50;;;;;;;8.31;47.65;101824.56;5028517;28;20194;-81
2023/04/06 09:16:15;;;;;;;6.20;5.60;;;;;;;8.37;48.53;101832.44;5029617;28;20654;-80
2023/04/06 09:18:42;;;;;;;6.10;5.60;;;;;;;8.44;48.10;101823.00;5029603;28;20267;-80
2023/04/06 09:21:09;;;;;;;5.97;5.50;;;;;;;8.59;46.85;101804.97;5027066;28;20561;-81
2023/04/06 09:23:38;;;;;;;5.70;5.30;;;;;;;8.66;47.32;101825.03;5027848;28;20213;-80
2023/04/06 09:26:09;;;;;;;5.97;5.40;;;;;;;8.78;47.92;101806.06;5028721;28;20656;-81
2023/04/06 09:28:46;;;;;;;5.30;4.87;;;;;;;8.86;46.35;101807.00;5029004;28;20231;-81
2023/04/06 09:31:13;;;;;;;5.63;5.13;;;;;;;8.99;44.50;101848.81;5032705;28;20240;-79
2023/04/06 09:33:40;;;;;;;5.60;5.10;;;;;;;9.00;40.75;101872.25;5026995;28;20657;-79
2023/04/06 09:36:09;;;;;;;5.40;5.00;;;;;;;9.06;41.02;101939.19;5027811;28;20203;-78
2023/04/06 09:38:37;;;;;;;6.07;5.57;;;;;;;9.08;40.81;102006.06;5026733;28;20214;-79
2023/04/06 09:41:04;;;;;;;5.33;4.90;;;;;;;9.23;42.81;102043.56;5026895;28;20569;-79
2023/04/06 09:43:32;;;;;;;5.47;4.97;;;;;;;9.32;43.15;102054.13;5028215;28;20690;-79
2023/04/06 09:46:02;;;;;;;6.07;5.50;;;;;;;9.29;40.23;102015.84;5028485;28;20268;-79
2023/04/06 09:48:31;;;;;;;5.40;5.00;;;;;;;9.26;40.70;102080.09;5029461;28;20346;-81
2023/04/06 09:51:15;;;;;;;6.53;5.93;;;;;;;9.27;39.42;102102.69;5028864;28;20198;-79
2023/04/06 09:53:54;;;;;;;6.33;5.83;;;;;;;9.41;41.94;102141.97;5029109;28;20675;-79
2023/04/06 09:56:45;;;;;;;5.90;5.10;;;;;;;9.41;40.18;102114.16;5028739;28;20200;-79
2023/04/06 09:59:35;;;;;;;5.50;5.00;;;;;;;9.55;41.77;102145.63;5029939;28;20263;-80
2023/04/06 10:02:05;;;;;;;7.50;5.43;;;;;;;9.64;41.41;102129.22;5036001;28;20557;-81
2023/04/06 10:04:41;;;;;;;7.00;5.40;;;;;;;9.55;38.20;102075.22;5029003;28;20225;-81
2023/04/06 10:07:09;;;;;;;6.07;5.57;;;;;;;9.69;41.42;102141.47;5028839;28;20205;-80
2023/04/06 10:09:38;;;;;;;6.80;5.70;;;;;;;9.80;42.26;102148.53;5027966;28;20222;-80
2023/04/06 10:12:05;;;;;;;6.27;5.10;;;;;;;9.90;39.53;102091.28;5026511;28;20253;-80
2023/04/06 10:14:33;;;;;;;6.20;5.70;;;;;;;9.92;39.30;102109.56;5026986;28;20224;-78
2023/04/06 10:17:01;;;;;;;5.53;5.03;;;;;;;9.97;40.00;102131.34;5027022;28;20233;-78
2023/04/06 10:19:40;;;;;;;5.97;5.43;;;;;;;10.10;41.56;102142.78;5025001;28;20220;-79
2023/04/06 10:22:12;;;;;;;6.00;5.60;;;;;;;9.99;39.06;102129.63;5026144;28;20200;-80
2023/04/06 10:24:40;;;;;;;6.20;5.70;;;;;;;10.04;38.81;102133.16;5027236;28;20241;-80
2023/04/06 10:27:08;;;;;;;5.80;5.30;;;;;;;10.10;40.29;102154.09;5028328;28;20195;-80
2023/04/06 10:29:46;;;;;;;6.33;5.63;;;;;;;10.19;39.41;102128.94;5026368;28;20603;-80
2023/04/06 10:32:12;;;;;;;6.17;5.67;;;;;;;10.31;40.97;102157.81;5032973;28;20232;-78
2023/04/06 10:34:39;;;;;;;5.57;5.10;;;;;;;10.42;40.79;102139.66;5028239;28;20194;-79
2023/04/06 10:37:14;;;;;;;6.60;6.10;;;;;;;10.31;38.53;102118.69;5027859;28;20198;-80
2023/04/06 10:39:54;;;;;;;6.43;5.93;;;;;;;10.45;39.37;102131.84;5027793;28;20218;-79
2023/04/06 10:42:24;;;;;;;6.00;5.50;;;;;;;10.50;40.21;102162.38;5027773;28;20552;-79
2023/04/06 10:44:51;;;;;;;6.43;5.93;;;;;;;10.61;40.10;102132.88;5027481;28;20213;-78
2023/04/06 10:47:18;;;;;;;6.90;6.37;;;;;;;10.62;39.41;102122.41;5026338;28;20199;-79
2023/04/06 10:49:45;;;;;;;6.47;5.97;;;;;;;10.73;39.66;102122.50;5019714;28;20232;-79
2023/04/06 10:52:12;;;;;;;6.63;6.03;;;;;;;10.82;40.11;102100.78;5022755;28;20243;-80
2023/04/06 10:54:42;;;;;;;6.37;5.73;;;;;;;10.89;40.94;102102.59;5055017;23;20259;-80
2023/04/06 10:57:10;;;;;;;7.03;6.33;;;;;;;10.91;40.07;102075.59;5038750;28;20213;-80
2023/04/06 10:59:36;;;;;;;6.80;6.27;;;;;;;11.00;39.86;102055.59;5040024;28;20299;-80
2023/04/06 11:02:03;;;;;;;7.13;6.53;;;;;;;11.00;37.72;102029.47;5035526;28;20236;-83
2023/04/06 11:04:30;;;;;;;7.47;6.93;;;;;;;10.98;37.90;102068.69;5035046;28;20267;-82
2023/04/06 11:06:57;;;;;;;6.80;6.17;;;;;;;11.15;40.46;102123.66;5034107;28;20200;-80
2023/04/06 11:09:25;;;;;;;7.33;6.73;;;;;;;11.23;37.81;102067.06;5034641;28;20614;-83
2023/04/06 11:11:52;;;;;;;6.87;6.37;;;;;;;11.41;39.54;102110.72;5033968;28;20209;-80
2023/04/06 11:14:20;;;;;;;7.03;6.43;;;;;;;11.48;39.83;102094.19;5034028;28;20267;-79
2023/04/06 11:16:48;;;;;;;7.77;7.17;;;;;;;11.63;39.89;102089.88;5034196;28;20226;-81
2023/04/06 11:19:14;;;;;;;6.97;6.43;;;;;;;11.83;39.42;102082.97;5034889;28;20209;-79
2023/04/06 11:21:43;;;;;;;6.93;6.33;;;;;;;11.77;39.31;102105.63;5035172;28;20268;-79
2023/04/06 11:24:11;;;;;;;7.87;7.17;;;;;;;12.03;39.31;102110.94;5034400;28;20230;-79
2023/04/06 11:26:43;;;;;;;7.90;7.30;;;;;;;12.38;39.50;102082.19;5035393;28;20562;-80
2023/04/06 11:29:10;;;;;;;8.03;7.33;;;;;;;12.62;36.82;102059.47;5034648;28;20259;-80
2023/04/06 11:31:42;;;;;;;7.60;7.00;;;;;;;12.85;38.19;102120.56;5033797;28;20226;-79